sensor_id;sensor_type;location;lat;lon;timestamp;pressure;altitude;pressure_sealevel;temperature;humidity
21401;BME280;18038;50.166;18.908;2023-02-16T00:02:25;98897.00;;;-2.05;78.90
21401;BME280;18038;50.166;18.908;2023-02-16T00:05:35;98896.22;;;-1.92;78.91
21401;BME280;18038;50.166;18.908;2023-02-16T00:08:42;98885.75;;;-1.92;78.72
21401;BME280;18038;50.166;18.908;2023-02-16T00:11:51;98884.38;;;-2.12;79.23
21401;BME280;18038;50.166;18.908;2023-02-16T00:15:15;98881.47;;;-2.08;79.39
21401;BME280;18038;50.166;18.908;2023-02-16T00:18:24;98880.44;;;-2.05;79.24
21401;BME280;18038;50.166;18.908;2023-02-16T00:21:33;98874.81;;;-1.99;78.98
21401;BME280;18038;50.166;18.908;2023-02-16T00:24:39;98880.34;;;-2.04;79.06
21401;BME280;18038;50.166;18.908;2023-02-16T00:27:46;98879.50;;;-2.04;79.19
21401;BME280;18038;50.166;18.908;2023-02-16T00:30:53;98882.50;;;-2.10;79.45
21401;BME280;18038;50.166;18.908;2023-02-16T00:34:21;98877.19;;;-2.23;79.52
21401;BME280;18038;50.166;18.908;2023-02-16T00:37:34;98873.44;;;-2.33;80.00
21401;BME280;18038;50.166;18.908;2023-02-16T00:40:41;98875.59;;;-2.26;79.73
21401;BME280;18038;50.166;18.908;2023-02-16T00:43:48;98868.19;;;-2.19;79.56
21401;BME280;18038;50.166;18.908;2023-02-16T00:47:00;98868.84;;;-2.30;79.83
21401;BME280;18038;50.166;18.908;2023-02-16T00:50:17;98860.44;;;-2.20;79.96
21401;BME280;18038;50.166;18.908;2023-02-16T00:53:27;98858.47;;;-2.31;79.92
21401;BME280;18038;50.166;18.908;2023-02-16T00:56:40;98857.81;;;-2.20;80.14
21401;BME280;18038;50.166;18.908;2023-02-16T00:59:54;98847.25;;;-2.19;79.90
21401;BME280;18038;50.166;18.908;2023-02-16T01:03:13;98851.66;;;-2.19;79.99
21401;BME280;18038;50.166;18.908;2023-02-16T01:06:23;98842.31;;;-2.23;79.81
21401;BME280;18038;50.166;18.908;2023-02-16T01:09:45;98834.81;;;-2.30;79.91
21401;BME280;18038;50.166;18.908;2023-02-16T01:13:13;98834.38;;;-2.36;80.25
21401;BME280;18038;50.166;18.908;2023-02-16T01:16:24;98810.91;;;-2.38;80.05
21401;BME280;18038;50.166;18.908;2023-02-16T01:19:42;98827.72;;;-2.28;80.27
21401;BME280;18038;50.166;18.908;2023-02-16T01:22:51;98818.66;;;-2.22;79.96
21401;BME280;18038;50.166;18.908;2023-02-16T01:25:59;98829.50;;;-2.28;80.23
21401;BME280;18038;50.166;18.908;2023-02-16T01:29:13;98813.53;;;-2.23;80.17
21401;BME280;18038;50.166;18.908;2023-02-16T01:32:23;98820.03;;;-2.16;79.52
21401;BME280;18038;50.166;18.908;2023-02-16T01:35:32;98814.69;;;-2.00;79.03
21401;BME280;18038;50.166;18.908;2023-02-16T01:38:39;98791.59;;;-2.08;78.81
21401;BME280;18038;50.166;18.908;2023-02-16T01:42:16;98817.22;;;-1.99;79.07
21401;BME280;18038;50.166;18.908;2023-02-16T01:45:46;98808.38;;;-2.25;79.85
21401;BME280;18038;50.166;18.908;2023-02-16T01:48:57;98819.59;;;-2.23;80.50
21401;BME280;18038;50.166;18.908;2023-02-16T01:52:15;98815.84;;;-2.19;80.12
21401;BME280;18038;50.166;18.908;2023-02-16T01:55:33;98813.34;;;-2.20;80.05
21401;BME280;18038;50.166;18.908;2023-02-16T01:58:47;98811.94;;;-2.26;80.24
21401;BME280;18038;50.166;18.908;2023-02-16T02:02:16;98805.28;;;-2.17;79.80
21401;BME280;18038;50.166;18.908;2023-02-16T02:05:28;98801.56;;;-2.28;80.21
21401;BME280;18038;50.166;18.908;2023-02-16T02:08:46;98816.31;;;-2.27;80.22
21401;BME280;18038;50.166;18.908;2023-02-16T02:12:10;98806.22;;;-2.18;79.83
21401;BME280;18038;50.166;18.908;2023-02-16T02:15:31;98804.34;;;-2.16;79.40
21401;BME280;18038;50.166;18.908;2023-02-16T02:18:38;98806.03;;;-2.15;79.34
21401;BME280;18038;50.166;18.908;2023-02-16T02:22:06;98788.38;;;-2.26;79.95
21401;BME280;18038;50.166;18.908;2023-02-16T02:30:26;98789.53;;;-2.44;80.89
21401;BME280;18038;50.166;18.908;2023-02-16T02:34:00;98780.19;;;-2.34;80.59
21401;BME280;18038;50.166;18.908;2023-02-16T02:37:21;98779.78;;;-2.42;80.56
21401;BME280;18038;50.166;18.908;2023-02-16T02:40:52;98785.28;;;-2.33;79.99
21401;BME280;18038;50.166;18.908;2023-02-16T02:44:14;98794.66;;;-2.29;80.11
21401;BME280;18038;50.166;18.908;2023-02-16T02:47:36;98800.53;;;-2.25;79.83
21401;BME280;18038;50.166;18.908;2023-02-16T02:50:50;98791.84;;;-2.26;79.82
21401;BME280;18038;50.166;18.908;2023-02-16T02:54:18;98788.19;;;-2.23;79.30
21401;BME280;18038;50.166;18.908;2023-02-16T02:57:47;98793.88;;;-2.16;79.15
21401;BME280;18038;50.166;18.908;2023-02-16T03:01:13;98797.81;;;-2.23;79.38
21401;BME280;18038;50.166;18.908;2023-02-16T03:04:28;98803.91;;;-2.23;79.55
21401;BME280;18038;50.166;18.908;2023-02-16T03:07:37;98811.81;;;-2.25;79.58
21401;BME280;18038;50.166;18.908;2023-02-16T03:10:58;98803.63;;;-2.18;79.65
21401;BME280;18038;50.166;18.908;2023-02-16T03:14:31;98814.25;;;-2.21;79.37
21401;BME280;18038;50.166;18.908;2023-02-16T03:17:43;98805.56;;;-2.22;79.41
21401;BME280;18038;50.166;18.908;2023-02-16T03:21:03;98802.03;;;-2.21;79.26
21401;BME280;18038;50.166;18.908;2023-02-16T03:24:27;98802.38;;;-2.27;79.49
21401;BME280;18038;50.166;18.908;2023-02-16T03:27:47;98799.69;;;-2.26;79.49
21401;BME280;18038;50.166;18.908;2023-02-16T03:31:10;98796.50;;;-2.31;79.78
21401;BME280;18038;50.166;18.908;2023-02-16T03:34:24;98796.03;;;-2.23;79.43
21401;BME280;18038;50.166;18.908;2023-02-16T03:37:32;98800.13;;;-2.19;79.31
21401;BME280;18038;50.166;18.908;2023-02-16T03:40:42;98803.69;;;-2.20;79.24
21401;BME280;18038;50.166;18.908;2023-02-16T03:43:52;98805.00;;;-2.13;78.85
21401;BME280;18038;50.166;18.908;2023-02-16T03:46:58;98798.28;;;-2.17;79.02
21401;BME280;18038;50.166;18.908;2023-02-16T03:50:08;98785.19;;;-2.17;78.88
21401;BME280;18038;50.166;18.908;2023-02-16T03:53:14;98798.19;;;-2.15;79.17
21401;BME280;18038;50.166;18.908;2023-02-16T03:56:21;98780.22;;;-2.21;79.35
21401;BME280;18038;50.166;18.908;2023-02-16T03:59:27;98784.53;;;-2.20;79.66
21401;BME280;18038;50.166;18.908;2023-02-16T04:02:34;98769.50;;;-2.31;79.56
21401;BME280;18038;50.166;18.908;2023-02-16T04:05:43;98777.44;;;-2.18;79.69
21401;BME280;18038;50.166;18.908;2023-02-16T04:08:49;98769.59;;;-2.33;80.16
21401;BME280;18038;50.166;18.908;2023-02-16T04:11:56;98766.59;;;-2.27;80.13
21401;BME280;18038;50.166;18.908;2023-02-16T04:15:17;98759.88;;;-2.31;80.50
21401;BME280;18038;50.166;18.908;2023-02-16T04:18:24;98755.69;;;-2.33;80.62
21401;BME280;18038;50.166;18.908;2023-02-16T04:21:33;98746.44;;;-2.39;81.08
21401;BME280;18038;50.166;18.908;2023-02-16T04:24:39;98746.03;;;-2.33;81.15
21401;BME280;18038;50.166;18.908;2023-02-16T04:27:48;98746.53;;;-2.40;81.51
21401;BME280;18038;50.166;18.908;2023-02-16T04:30:55;98746.25;;;-2.36;81.59
21401;BME280;18038;50.166;18.908;2023-02-16T04:34:02;98746.63;;;-2.42;81.76
21401;BME280;18038;50.166;18.908;2023-02-16T04:37:10;98750.34;;;-2.46;81.76
21401;BME280;18038;50.166;18.908;2023-02-16T04:40:18;98750.56;;;-2.49;81.98
21401;BME280;18038;50.166;18.908;2023-02-16T04:43:24;98747.31;;;-2.53;82.05
21401;BME280;18038;50.166;18.908;2023-02-16T04:46:31;98737.47;;;-2.49;82.20
21401;BME280;18038;50.166;18.908;2023-02-16T04:49:37;98735.63;;;-2.47;82.12
21401;BME280;18038;50.166;18.908;2023-02-16T04:52:46;98732.88;;;-2.46;82.23
21401;BME280;18038;50.166;18.908;2023-02-16T04:55:52;98735.06;;;-2.52;82.62
21401;BME280;18038;50.166;18.908;2023-02-16T04:58:59;98738.69;;;-2.55;82.71
21401;BME280;18038;50.166;18.908;2023-02-16T05:02:05;98738.41;;;-2.50;82.47
21401;BME280;18038;50.166;18.908;2023-02-16T05:05:13;98744.00;;;-2.56;82.51
21401;BME280;18038;50.166;18.908;2023-02-16T05:08:21;98738.41;;;-2.50;82.49
21401;BME280;18038;50.166;18.908;2023-02-16T05:11:28;98747.38;;;-2.54;82.53
21401;BME280;18038;50.166;18.908;2023-02-16T05:14:46;98747.00;;;-2.48;82.26
21401;BME280;18038;50.166;18.908;2023-02-16T05:17:53;98737.88;;;-2.55;82.50
21401;BME280;18038;50.166;18.908;2023-02-16T05:20:59;98729.72;;;-2.51;82.46
21401;BME280;18038;50.166;18.908;2023-02-16T05:24:21;98729.81;;;-2.52;82.81
21401;BME280;18038;50.166;18.908;2023-02-16T05:27:29;98733.91;;;-2.48;82.62
21401;BME280;18038;50.166;18.908;2023-02-16T05:30:36;98739.69;;;-2.43;82.63
21401;BME280;18038;50.166;18.908;2023-02-16T05:33:42;98739.50;;;-2.40;82.36
21401;BME280;18038;50.166;18.908;2023-02-16T05:36:49;98739.16;;;-2.48;82.51
21401;BME280;18038;50.166;18.908;2023-02-16T05:39:59;98737.75;;;-2.39;82.30
21401;BME280;18038;50.166;18.908;2023-02-16T05:43:05;98740.38;;;-2.39;82.36
21401;BME280;18038;50.166;18.908;2023-02-16T05:46:13;98737.00;;;-2.41;82.53
21401;BME280;18038;50.166;18.908;2023-02-16T05:49:20;98743.63;;;-2.36;82.54
21401;BME280;18038;50.166;18.908;2023-02-16T05:52:27;98749.41;;;-2.31;82.33
21401;BME280;18038;50.166;18.908;2023-02-16T05:55:36;98742.03;;;-2.38;82.48
21401;BME280;18038;50.166;18.908;2023-02-16T05:58:42;98743.72;;;-2.37;82.37
21401;BME280;18038;50.166;18.908;2023-02-16T06:01:49;98749.59;;;-2.34;82.68
21401;BME280;18038;50.166;18.908;2023-02-16T06:04:55;98757.47;;;-2.34;82.85
21401;BME280;18038;50.166;18.908;2023-02-16T06:08:02;98759.88;;;-2.31;82.71
21401;BME280;18038;50.166;18.908;2023-02-16T06:11:12;98761.53;;;-2.30;82.82
21401;BME280;18038;50.166;18.908;2023-02-16T06:14:31;98773.81;;;-2.30;82.51
21401;BME280;18038;50.166;18.908;2023-02-16T06:17:37;98780.81;;;-2.31;82.89
21401;BME280;18038;50.166;18.908;2023-02-16T06:20:47;98774.34;;;-2.25;82.85
21401;BME280;18038;50.166;18.908;2023-02-16T06:23:53;98770.06;;;-2.26;82.60
21401;BME280;18038;50.166;18.908;2023-02-16T06:27:03;98776.13;;;-2.26;83.05
21401;BME280;18038;50.166;18.908;2023-02-16T06:30:09;98773.88;;;-2.17;82.97
21401;BME280;18038;50.166;18.908;2023-02-16T06:33:17;98778.16;;;-2.16;82.94
21401;BME280;18038;50.166;18.908;2023-02-16T06:36:25;98775.06;;;-2.09;82.75
21401;BME280;18038;50.166;18.908;2023-02-16T06:39:32;98775.75;;;-2.05;82.69
21401;BME280;18038;50.166;18.908;2023-02-16T06:42:41;98785.06;;;-2.01;82.65
21401;BME280;18038;50.166;18.908;2023-02-16T06:45:48;98785.22;;;-1.90;82.70
21401;BME280;18038;50.166;18.908;2023-02-16T06:48:56;98776.50;;;-1.76;81.95
21401;BME280;18038;50.166;18.908;2023-02-16T06:52:05;98789.63;;;-1.63;81.47
21401;BME280;18038;50.166;18.908;2023-02-16T06:55:11;98785.34;;;-1.64;81.61
21401;BME280;18038;50.166;18.908;2023-02-16T06:58:20;98770.38;;;-1.62;81.86
21401;BME280;18038;50.166;18.908;2023-02-16T07:01:29;98776.47;;;-1.49;81.28
21401;BME280;18038;50.166;18.908;2023-02-16T07:04:36;98772.88;;;-1.33;80.55
21401;BME280;18038;50.166;18.908;2023-02-16T07:07:42;98782.31;;;-1.18;79.95
21401;BME280;18038;50.166;18.908;2023-02-16T07:10:49;98773.31;;;-1.14;80.09
21401;BME280;18038;50.166;18.908;2023-02-16T07:14:00;98786.66;;;-0.92;78.98
21401;BME280;18038;50.166;18.908;2023-02-16T07:17:07;98774.59;;;-0.81;78.37
21401;BME280;18038;50.166;18.908;2023-02-16T07:20:19;98790.84;;;-0.25;77.14
21401;BME280;18038;50.166;18.908;2023-02-16T07:23:26;98781.66;;;-0.07;75.21
21401;BME280;18038;50.166;18.908;2023-02-16T07:26:32;98780.50;;;0.22;74.27
21401;BME280;18038;50.166;18.908;2023-02-16T07:29:44;98781.25;;;0.24;74.14
21401;BME280;18038;50.166;18.908;2023-02-16T07:32:50;98780.78;;;0.30;73.68
21401;BME280;18038;50.166;18.908;2023-02-16T07:35:56;98773.88;;;0.53;73.42
21401;BME280;18038;50.166;18.908;2023-02-16T07:39:04;98771.78;;;0.21;73.69
21401;BME280;18038;50.166;18.908;2023-02-16T07:42:11;98781.06;;;0.86;72.48
21401;BME280;18038;50.166;18.908;2023-02-16T07:45:32;98784.81;;;1.17;71.05
21401;BME280;18038;50.166;18.908;2023-02-16T07:48:47;98793.00;;;1.37;69.31
21401;BME280;18038;50.166;18.908;2023-02-16T07:51:53;98792.50;;;1.32;69.56
21401;BME280;18038;50.166;18.908;2023-02-16T07:55:00;98785.13;;;1.48;69.57
21401;BME280;18038;50.166;18.908;2023-02-16T07:58:06;98788.47;;;1.39;68.85
21401;BME280;18038;50.166;18.908;2023-02-16T08:01:16;98796.97;;;1.42;68.76
21401;BME280;18038;50.166;18.908;2023-02-16T08:04:22;98789.78;;;1.67;68.07
21401;BME280;18038;50.166;18.908;2023-02-16T08:07:28;98777.94;;;1.84;68.36
21401;BME280;18038;50.166;18.908;2023-02-16T08:10:34;98775.28;;;1.95;67.17
21401;BME280;18038;50.166;18.908;2023-02-16T08:13:41;98788.56;;;2.16;66.89
21401;BME280;18038;50.166;18.908;2023-02-16T08:16:50;98787.25;;;2.10;66.90
21401;BME280;18038;50.166;18.908;2023-02-16T08:19:58;98782.78;;;2.22;66.42
21401;BME280;18038;50.166;18.908;2023-02-16T08:23:05;98779.25;;;2.44;66.34
21401;BME280;18038;50.166;18.908;2023-02-16T08:26:15;98785.88;;;2.92;64.51
21401;BME280;18038;50.166;18.908;2023-02-16T08:29:22;98779.47;;;3.47;62.29
21401;BME280;18038;50.166;18.908;2023-02-16T08:32:32;98784.13;;;3.65;61.67
21401;BME280;18038;50.166;18.908;2023-02-16T08:35:38;98778.34;;;4.11;60.24
21401;BME280;18038;50.166;18.908;2023-02-16T08:38:45;98774.91;;;4.50;58.65
21401;BME280;18038;50.166;18.908;2023-02-16T08:41:53;98774.94;;;4.00;60.56
21401;BME280;18038;50.166;18.908;2023-02-16T08:45:00;98784.53;;;4.61;58.57
21401;BME280;18038;50.166;18.908;2023-02-16T08:48:08;98786.50;;;4.08;59.89
21401;BME280;18038;50.166;18.908;2023-02-16T08:51:16;98776.00;;;4.28;59.41
21401;BME280;18038;50.166;18.908;2023-02-16T08:54:26;98784.81;;;4.96;57.79
21401;BME280;18038;50.166;18.908;2023-02-16T08:57:35;98785.34;;;4.90;58.25
21401;BME280;18038;50.166;18.908;2023-02-16T09:00:42;98793.03;;;4.84;56.91
21401;BME280;18038;50.166;18.908;2023-02-16T09:03:52;98784.38;;;5.11;57.23
21401;BME280;18038;50.166;18.908;2023-02-16T09:06:59;98784.06;;;4.26;58.24
21401;BME280;18038;50.166;18.908;2023-02-16T09:10:06;98799.66;;;4.29;58.36
21401;BME280;18038;50.166;18.908;2023-02-16T09:13:13;98796.63;;;4.53;58.00
21401;BME280;18038;50.166;18.908;2023-02-16T09:16:21;98783.34;;;4.14;58.24
21401;BME280;18038;50.166;18.908;2023-02-16T09:19:32;98788.03;;;4.01;59.21
21401;BME280;18038;50.166;18.908;2023-02-16T09:22:38;98784.38;;;4.52;58.24
21401;BME280;18038;50.166;18.908;2023-02-16T09:25:48;98788.75;;;4.03;58.93
21401;BME280;18038;50.166;18.908;2023-02-16T09:28:55;98783.53;;;3.82;59.62
21401;BME280;18038;50.166;18.908;2023-02-16T09:32:01;98799.78;;;4.18;59.25
21401;BME280;18038;50.166;18.908;2023-02-16T09:35:11;98793.50;;;4.19;58.80
21401;BME280;18038;50.166;18.908;2023-02-16T09:38:17;98795.97;;;4.11;59.01
21401;BME280;18038;50.166;18.908;2023-02-16T09:41:33;98804.31;;;4.76;57.85
21401;BME280;18038;50.166;18.908;2023-02-16T09:45:03;98795.84;;;4.72;57.81
21401;BME280;18038;50.166;18.908;2023-02-16T09:48:35;98801.50;;;5.36;56.02
21401;BME280;18038;50.166;18.908;2023-02-16T09:51:53;98804.22;;;5.73;55.13
21401;BME280;18038;50.166;18.908;2023-02-16T09:55:10;98795.72;;;6.52;52.94
21401;BME280;18038;50.166;18.908;2023-02-16T09:58:21;98787.91;;;6.87;52.23
21401;BME280;18038;50.166;18.908;2023-02-16T10:01:40;98791.63;;;6.58;51.97
21401;BME280;18038;50.166;18.908;2023-02-16T10:05:11;98791.41;;;6.24;53.04
21401;BME280;18038;50.166;18.908;2023-02-16T10:08:30;98791.56;;;6.22;53.19
21401;BME280;18038;50.166;18.908;2023-02-16T10:11:46;98784.63;;;6.93;51.76
21401;BME280;18038;50.166;18.908;2023-02-16T10:15:03;98788.09;;;7.29;50.12
21401;BME280;18038;50.166;18.908;2023-02-16T10:18:25;98789.94;;;6.93;51.34
21401;BME280;18038;50.166;18.908;2023-02-16T10:21:35;98785.16;;;6.96;51.15
21401;BME280;18038;50.166;18.908;2023-02-16T10:24:57;98784.41;;;6.50;51.40
21401;BME280;18038;50.166;18.908;2023-02-16T10:28:15;98784.16;;;6.44;52.53
21401;BME280;18038;50.166;18.908;2023-02-16T10:31:31;98780.53;;;6.81;51.32
21401;BME280;18038;50.166;18.908;2023-02-16T10:34:48;98770.53;;;7.10;49.81
21401;BME280;18038;50.166;18.908;2023-02-16T10:38:06;98778.19;;;6.95;50.75
21401;BME280;18038;50.166;18.908;2023-02-16T10:41:31;98776.47;;;7.82;48.64
21401;BME280;18038;50.166;18.908;2023-02-16T10:44:46;98768.88;;;7.61;48.86
21401;BME280;18038;50.166;18.908;2023-02-16T10:48:00;98763.69;;;8.37;47.88
21401;BME280;18038;50.166;18.908;2023-02-16T10:51:09;98751.91;;;7.88;48.05
21401;BME280;18038;50.166;18.908;2023-02-16T10:54:26;98743.88;;;7.28;49.36
21401;BME280;18038;50.166;18.908;2023-02-16T10:57:38;98734.47;;;7.08;50.21
21401;BME280;18038;50.166;18.908;2023-02-16T11:00:52;98739.47;;;7.63;48.88
21401;BME280;18038;50.166;18.908;2023-02-16T11:04:03;98733.88;;;7.74;48.68
21401;BME280;18038;50.166;18.908;2023-02-16T11:07:14;98727.88;;;7.38;49.85
21401;BME280;18038;50.166;18.908;2023-02-16T11:10:34;98727.09;;;7.01;50.32
21401;BME280;18038;50.166;18.908;2023-02-16T11:14:01;98728.34;;;7.15;50.54
21401;BME280;18038;50.166;18.908;2023-02-16T11:17:14;98719.53;;;8.01;48.96
21401;BME280;18038;50.166;18.908;2023-02-16T11:20:26;98715.66;;;7.87;48.58
21401;BME280;18038;50.166;18.908;2023-02-16T11:23:35;98710.50;;;7.86;48.30
21401;BME280;18038;50.166;18.908;2023-02-16T11:26:58;98704.47;;;7.41;48.95
21401;BME280;18038;50.166;18.908;2023-02-16T11:30:27;98710.34;;;7.01;50.31
21401;BME280;18038;50.166;18.908;2023-02-16T11:33:38;98694.66;;;7.76;49.13
21401;BME280;18038;50.166;18.908;2023-02-16T11:36:46;98695.84;;;7.39;49.59
21401;BME280;18038;50.166;18.908;2023-02-16T11:39:56;98696.41;;;7.33;50.05
21401;BME280;18038;50.166;18.908;2023-02-16T11:43:05;98691.75;;;7.27;50.79
21401;BME280;18038;50.166;18.908;2023-02-16T11:46:25;98684.34;;;7.39;50.50
21401;BME280;18038;50.166;18.908;2023-02-16T11:49:35;98680.94;;;8.05;49.07
21401;BME280;18038;50.166;18.908;2023-02-16T11:52:44;98683.34;;;8.49;48.00
21401;BME280;18038;50.166;18.908;2023-02-16T11:56:09;98697.41;;;8.01;48.85
21401;BME280;18038;50.166;18.908;2023-02-16T11:59:20;98693.66;;;8.36;47.18
21401;BME280;18038;50.166;18.908;2023-02-16T12:06:48;98689.34;;;7.76;48.77
21401;BME280;18038;50.166;18.908;2023-02-16T12:10:10;98679.53;;;8.27;48.33
21401;BME280;18038;50.166;18.908;2023-02-16T12:13:32;98681.31;;;7.60;49.49
21401;BME280;18038;50.166;18.908;2023-02-16T12:16:52;98672.53;;;7.67;49.41
21401;BME280;18038;50.166;18.908;2023-02-16T12:20:24;98682.44;;;8.00;48.81
21401;BME280;18038;50.166;18.908;2023-02-16T12:23:54;98667.03;;;7.61;49.06
21401;BME280;18038;50.166;18.908;2023-02-16T12:27:22;98671.88;;;8.24;47.78
21401;BME280;18038;50.166;18.908;2023-02-16T12:30:49;98662.03;;;8.17;47.97
21401;BME280;18038;50.166;18.908;2023-02-16T12:34:15;98662.19;;;8.23;48.04
21401;BME280;18038;50.166;18.908;2023-02-16T12:37:41;98656.81;;;7.91;48.56
21401;BME280;18038;50.166;18.908;2023-02-16T12:41:04;98656.19;;;8.05;47.77
21401;BME280;18038;50.166;18.908;2023-02-16T12:44:31;98666.31;;;8.01;48.14
21401;BME280;18038;50.166;18.908;2023-02-16T12:47:51;98667.25;;;7.76;48.46
21401;BME280;18038;50.166;18.908;2023-02-16T12:51:08;98654.06;;;7.58;49.05
21401;BME280;18038;50.166;18.908;2023-02-16T12:54:26;98664.81;;;7.48;49.23
21401;BME280;18038;50.166;18.908;2023-02-16T12:57:48;98654.47;;;7.11;50.05
21401;BME280;18038;50.166;18.908;2023-02-16T13:01:04;98646.44;;;7.03;50.02
21401;BME280;18038;50.166;18.908;2023-02-16T13:04:22;98634.59;;;7.23;49.42
21401;BME280;18038;50.166;18.908;2023-02-16T13:07:38;98624.28;;;6.68;50.59
21401;BME280;18038;50.166;18.908;2023-02-16T13:11:00;98626.34;;;6.74;50.63
21401;BME280;18038;50.166;18.908;2023-02-16T13:14:19;98630.09;;;6.89;50.97
21401;BME280;18038;50.166;18.908;2023-02-16T13:17:32;98622.25;;;6.79;50.96
21401;BME280;18038;50.166;18.908;2023-02-16T13:20:48;98622.03;;;6.29;52.04
21401;BME280;18038;50.166;18.908;2023-02-16T13:24:09;98615.47;;;6.41;51.68
21401;BME280;18038;50.166;18.908;2023-02-16T13:27:43;98621.88;;;5.95;52.44
21401;BME280;18038;50.166;18.908;2023-02-16T13:31:11;98622.41;;;5.53;53.91
21401;BME280;18038;50.166;18.908;2023-02-16T13:39:00;98616.31;;;5.88;53.00
21401;BME280;18038;50.166;18.908;2023-02-16T13:42:58;98612.22;;;5.94;53.23
21401;BME280;18038;50.166;18.908;2023-02-16T13:46:19;98609.13;;;5.62;53.57
21401;BME280;18038;50.166;18.908;2023-02-16T13:49:35;98607.22;;;5.17;54.47
21401;BME280;18038;50.166;18.908;2023-02-16T13:52:44;98603.91;;;4.68;55.91
21401;BME280;18038;50.166;18.908;2023-02-16T14:00:00;98597.47;;;4.80;56.73
21401;BME280;18038;50.166;18.908;2023-02-16T14:03:35;98591.47;;;4.78;56.58
21401;BME280;18038;50.166;18.908;2023-02-16T14:06:43;98595.53;;;4.73;57.27
21401;BME280;18038;50.166;18.908;2023-02-16T14:09:50;98585.38;;;4.78;57.18
21401;BME280;18038;50.166;18.908;2023-02-16T14:12:56;98597.19;;;4.84;57.26
21401;BME280;18038;50.166;18.908;2023-02-16T14:16:10;98601.78;;;4.72;57.22
21401;BME280;18038;50.166;18.908;2023-02-16T14:19:34;98592.91;;;4.73;56.90
21401;BME280;18038;50.166;18.908;2023-02-16T14:22:48;98599.13;;;4.25;58.34
21401;BME280;18038;50.166;18.908;2023-02-16T14:26:01;98591.97;;;4.35;58.54
21401;BME280;18038;50.166;18.908;2023-02-16T14:29:16;98595.34;;;4.08;59.27
21401;BME280;18038;50.166;18.908;2023-02-16T14:32:31;98599.50;;;3.81;59.70
21401;BME280;18038;50.166;18.908;2023-02-16T14:35:43;98598.13;;;3.87;59.70
21401;BME280;18038;50.166;18.908;2023-02-16T14:38:54;98599.78;;;3.78;60.35
21401;BME280;18038;50.166;18.908;2023-02-16T14:42:11;98602.84;;;3.74;60.20
21401;BME280;18038;50.166;18.908;2023-02-16T14:45:41;98606.31;;;3.74;60.68
21401;BME280;18038;50.166;18.908;2023-02-16T14:49:38;98608.69;;;3.67;61.15
21401;BME280;18038;50.166;18.908;2023-02-16T14:57:22;98606.63;;;3.90;60.32
21401;BME280;18038;50.166;18.908;2023-02-16T15:00:44;98610.34;;;3.68;60.78
21401;BME280;18038;50.166;18.908;2023-02-16T15:03:55;98607.44;;;3.81;60.57
21401;BME280;18038;50.166;18.908;2023-02-16T15:07:04;98618.13;;;3.70;60.46
21401;BME280;18038;50.166;18.908;2023-02-16T15:10:14;98605.34;;;3.65;60.26
21401;BME280;18038;50.166;18.908;2023-02-16T15:13:29;98594.59;;;3.38;60.91
21401;BME280;18038;50.166;18.908;2023-02-16T15:16:40;98598.00;;;3.29;61.31
21401;BME280;18038;50.166;18.908;2023-02-16T15:20:06;98595.31;;;3.09;61.76
21401;BME280;18038;50.166;18.908;2023-02-16T15:23:21;98601.59;;;3.08;62.29
21401;BME280;18038;50.166;18.908;2023-02-16T15:26:31;98594.69;;;2.96;62.70
21401;BME280;18038;50.166;18.908;2023-02-16T15:30:02;98595.06;;;2.91;62.79
21401;BME280;18038;50.166;18.908;2023-02-16T15:33:26;98600.06;;;2.85;62.88
21401;BME280;18038;50.166;18.908;2023-02-16T15:36:41;98592.13;;;2.85;62.88
21401;BME280;18038;50.166;18.908;2023-02-16T15:39:53;98600.56;;;2.78;62.70
21401;BME280;18038;50.166;18.908;2023-02-16T15:43:28;98598.72;;;2.69;63.35
21401;BME280;18038;50.166;18.908;2023-02-16T15:46:39;98595.13;;;2.49;63.80
21401;BME280;18038;50.166;18.908;2023-02-16T15:49:47;98592.09;;;2.54;63.88
21401;BME280;18038;50.166;18.908;2023-02-16T15:52:53;98590.44;;;2.32;64.50
21401;BME280;18038;50.166;18.908;2023-02-16T15:56:16;98587.63;;;2.24;64.96
21401;BME280;18038;50.166;18.908;2023-02-16T15:59:33;98592.00;;;2.13;65.10
21401;BME280;18038;50.166;18.908;2023-02-16T16:02:45;98589.09;;;2.16;65.09
21401;BME280;18038;50.166;18.908;2023-02-16T16:05:59;98582.19;;;2.04;65.56
21401;BME280;18038;50.166;18.908;2023-02-16T16:09:19;98581.72;;;1.99;65.84
21401;BME280;18038;50.166;18.908;2023-02-16T16:12:30;98578.63;;;1.94;66.35
21401;BME280;18038;50.166;18.908;2023-02-16T16:15:41;98579.41;;;1.85;66.93
21401;BME280;18038;50.166;18.908;2023-02-16T16:18:52;98589.53;;;1.68;67.97
21401;BME280;18038;50.166;18.908;2023-02-16T16:22:00;98588.59;;;1.58;67.98
21401;BME280;18038;50.166;18.908;2023-02-16T16:25:38;98590.25;;;1.59;67.32
21401;BME280;18038;50.166;18.908;2023-02-16T16:28:50;98593.19;;;1.45;67.85
21401;BME280;18038;50.166;18.908;2023-02-16T16:31:56;98587.34;;;1.41;67.99
21401;BME280;18038;50.166;18.908;2023-02-16T16:35:18;98591.41;;;1.34;68.41
21401;BME280;18038;50.166;18.908;2023-02-16T16:38:27;98593.47;;;1.19;69.12
21401;BME280;18038;50.166;18.908;2023-02-16T16:41:38;98591.19;;;1.03;69.58
21401;BME280;18038;50.166;18.908;2023-02-16T16:48:33;98582.34;;;0.93;69.79
21401;BME280;18038;50.166;18.908;2023-02-16T16:51:42;98581.53;;;0.81;70.13
21401;BME280;18038;50.166;18.908;2023-02-16T16:54:49;98583.09;;;0.73;70.77
21401;BME280;18038;50.166;18.908;2023-02-16T16:57:57;98585.56;;;0.63;70.96
21401;BME280;18038;50.166;18.908;2023-02-16T17:01:09;98580.19;;;0.53;71.14
21401;BME280;18038;50.166;18.908;2023-02-16T17:04:17;98581.75;;;0.56;71.14
21401;BME280;18038;50.166;18.908;2023-02-16T17:07:24;98583.53;;;0.55;70.90
21401;BME280;18038;50.166;18.908;2023-02-16T17:10:30;98595.94;;;0.53;70.75
21401;BME280;18038;50.166;18.908;2023-02-16T17:13:37;98591.50;;;0.43;71.39
21401;BME280;18038;50.166;18.908;2023-02-16T17:16:48;98586.13;;;0.33;71.46
21401;BME280;18038;50.166;18.908;2023-02-16T17:19:58;98590.28;;;0.35;71.66
21401;BME280;18038;50.166;18.908;2023-02-16T17:23:04;98593.41;;;0.40;71.38
21401;BME280;18038;50.166;18.908;2023-02-16T17:26:11;98584.09;;;0.25;71.84